createdAt,value
2023-06-17T00:00:36.086Z,14.15
2023-06-17T00:05:42.226Z,20.75
2023-06-17T00:10:48.295Z,19.08
2023-06-17T00:15:56.071Z,19.60
2023-06-17T00:21:01.824Z,12.75
2023-06-17T00:26:07.128Z,16.98
2023-06-17T00:36:18.069Z,7.50
2023-06-17T00:46:44.012Z,17.30
2023-06-17T00:52:04.717Z,20.75
2023-06-17T00:57:18.414Z,18.35
2023-06-17T01:02:27.998Z,18.83
2023-06-17T01:07:53.081Z,13.63
2023-06-17T01:13:00.414Z,18.80
2023-06-17T01:18:09.831Z,18.50
2023-06-17T01:23:20.903Z,15.93
2023-06-17T01:28:27.082Z,18.65
2023-06-17T01:33:33.517Z,15.82
2023-06-17T01:38:43.936Z,18.02
2023-06-17T01:43:52.324Z,19.83
2023-06-17T01:48:58.935Z,17.48
2023-06-17T01:54:04.651Z,21.02
2023-06-17T01:59:10.172Z,17.92
2023-06-17T02:04:16.169Z,24.05
2023-06-17T02:09:22.295Z,9.23
2023-06-17T02:14:28.498Z,14.32
2023-06-17T02:19:38.092Z,21.08
2023-06-17T02:24:43.735Z,22.38
2023-06-17T02:29:49.527Z,22.67
2023-06-17T02:34:55.756Z,23.45
2023-06-17T02:40:01.533Z,15.82
2023-06-17T02:45:09.893Z,22.50
2023-06-17T02:50:15.832Z,25.00
2023-06-17T02:55:21.259Z,21.70
2023-06-17T03:05:32.830Z,26.63
2023-06-17T03:10:38.594Z,18.77
2023-06-17T03:15:50.505Z,21.67
2023-06-17T03:20:57.740Z,24.35
2023-06-17T03:26:05.186Z,25.30
2023-06-17T03:31:10.997Z,19.10
2023-06-17T03:36:20.115Z,18.92
2023-06-17T03:41:29.924Z,22.00
2023-06-17T03:46:35.762Z,19.65
2023-06-17T03:51:42.604Z,25.33
2023-06-17T03:56:48.648Z,26.23
2023-06-17T04:01:54.317Z,26.10
2023-06-17T04:07:00.276Z,19.55
2023-06-17T04:12:06.573Z,22.90
2023-06-17T04:17:14.200Z,16.05
2023-06-17T04:22:19.765Z,17.55
2023-06-17T04:27:25.826Z,17.77
2023-06-17T04:32:31.634Z,26.20
2023-06-17T04:37:39.165Z,18.08
2023-06-17T04:42:47.353Z,19.40
2023-06-17T04:47:53.056Z,26.75
2023-06-17T04:53:06.124Z,23.75
2023-06-17T04:58:15.172Z,8.85
2023-06-17T05:03:26.685Z,21.73
2023-06-17T05:08:32.861Z,20.90
2023-06-17T05:13:40.912Z,17.52
2023-06-17T05:18:47.086Z,24.92
2023-06-17T05:28:59.739Z,19.27
2023-06-17T05:34:05.744Z,21.65
2023-06-17T05:39:13.032Z,19.73
2023-06-17T05:44:19.353Z,22.70
2023-06-17T05:49:28.453Z,17.73
2023-06-17T05:54:34.124Z,18.73
2023-06-17T05:59:40.397Z,19.27
2023-06-17T06:04:46.278Z,14.88
2023-06-17T06:09:52.312Z,15.75
2023-06-17T06:14:59.959Z,13.65
2023-06-17T06:20:09.875Z,22.45
2023-06-17T06:25:15.393Z,14.75
2023-06-17T06:30:21.308Z,15.45
2023-06-17T06:35:31.274Z,14.77
2023-06-17T06:40:38.066Z,15.82
2023-06-17T06:45:43.969Z,15.43
2023-06-17T06:50:50.422Z,13.10
2023-06-17T06:55:59.606Z,22.88
2023-06-17T07:01:07.468Z,15.35
2023-06-17T07:06:13.590Z,18.63
2023-06-17T07:11:20.804Z,12.45
2023-06-17T07:16:26.919Z,12.02
2023-06-17T07:21:33.197Z,16.45
2023-06-17T07:26:39.061Z,19.67
2023-06-17T07:31:45.283Z,19.58
2023-06-17T07:36:55.039Z,11.05
2023-06-17T07:42:00.582Z,16.08
2023-06-17T07:47:06.821Z,13.13
2023-06-17T07:52:12.553Z,13.25
2023-06-17T07:57:18.388Z,16.98
2023-06-17T08:02:24.231Z,18.65
2023-06-17T08:07:29.775Z,17.77
2023-06-17T08:12:35.491Z,14.80
2023-06-17T08:17:41.144Z,19.00
2023-06-17T08:22:46.953Z,17.67
2023-06-17T08:27:53.230Z,13.52
2023-06-17T08:33:00.220Z,19.63
2023-06-17T08:38:08.482Z,24.25
2023-06-17T08:43:18.162Z,14.55
2023-06-17T08:48:24.448Z,19.50
2023-06-17T09:05:56.384Z,22.70
2023-06-17T09:11:13.251Z,11.73
2023-06-17T09:16:37.722Z,19.23
2023-06-17T09:21:44.140Z,15.90
2023-06-17T09:26:50.523Z,18.10
2023-06-17T09:31:58.421Z,20.30
2023-06-17T09:37:05.806Z,19.27
2023-06-17T09:42:13.146Z,20.20
2023-06-17T09:47:24.684Z,22.50
2023-06-17T09:52:31.421Z,13.48
2023-06-17T09:57:39.033Z,29.13
2023-06-17T10:02:45.378Z,16.15
2023-06-17T10:07:52.743Z,21.27
2023-06-17T10:13:02.203Z,29.15
2023-06-17T10:18:10.916Z,23.88
2023-06-17T10:23:17.416Z,30.45
2023-06-17T10:28:24.016Z,22.45
2023-06-17T10:33:30.244Z,26.73
2023-06-17T10:38:36.812Z,19.30
2023-06-17T10:43:43.916Z,16.40
2023-06-17T10:48:50.402Z,25.95
2023-06-17T10:53:56.157Z,14.85
2023-06-17T10:59:02.357Z,15.02
2023-06-17T11:04:12.117Z,16.73
2023-06-17T11:09:17.992Z,16.35
2023-06-17T11:14:24.388Z,19.38
2023-06-17T11:19:30.267Z,20.42
2023-06-17T11:24:37.532Z,12.23
2023-06-17T11:29:46.570Z,16.33
2023-06-17T11:34:54.468Z,19.80
2023-06-17T11:40:00.522Z,18.98
2023-06-17T11:45:08.276Z,18.73
2023-06-17T11:50:14.243Z,17.63
2023-06-17T11:55:19.998Z,14.40
2023-06-17T12:00:26.268Z,18.75
2023-06-17T12:05:34.443Z,11.18
2023-06-17T12:10:42.864Z,8.43
2023-06-17T12:15:48.792Z,11.63
2023-06-17T12:20:54.947Z,12.18
2023-06-17T12:26:00.575Z,8.13
2023-06-17T12:31:06.172Z,11.80
2023-06-17T12:36:11.845Z,8.25
2023-06-17T12:41:19.330Z,9.10
2023-06-17T12:46:26.680Z,7.50
2023-06-17T12:51:32.064Z,10.50
2023-06-17T12:56:38.085Z,7.78
2023-06-17T13:01:44.126Z,11.10
2023-06-17T13:06:50.266Z,11.02
2023-06-17T13:11:56.166Z,9.00
2023-06-17T13:17:02.471Z,9.23
2023-06-17T13:22:08.782Z,11.93
2023-06-17T13:27:20.930Z,8.50
2023-06-17T13:32:26.748Z,7.30
2023-06-17T13:37:32.455Z,10.95
2023-06-17T13:42:38.197Z,6.72
2023-06-17T13:47:44.019Z,10.85
2023-06-17T13:52:49.756Z,9.75
2023-06-17T13:57:55.370Z,11.07
2023-06-17T14:03:01.138Z,11.73
2023-06-17T14:08:07.801Z,13.05
2023-06-17T14:13:15.756Z,10.32
2023-06-17T14:18:21.127Z,11.05
2023-06-17T14:23:27.078Z,19.75
2023-06-17T14:28:33.164Z,26.52
2023-06-17T14:33:39.327Z,15.93
2023-06-17T14:38:45.160Z,20.85
2023-06-17T14:43:51.389Z,18.30
2023-06-17T14:49:00.598Z,12.63
2023-06-17T14:54:52.596Z,12.90
2023-06-17T14:59:50.840Z,13.75
2023-06-17T15:04:56.814Z,11.85
2023-06-17T15:10:02.448Z,10.73
2023-06-17T15:15:08.999Z,13.02
2023-06-17T15:20:14.740Z,10.02
2023-06-17T15:25:20.525Z,12.45
2023-06-17T15:30:27.232Z,11.57
2023-06-17T15:35:33.503Z,13.73
2023-06-17T15:40:40.025Z,12.13
2023-06-17T15:45:45.577Z,9.77
2023-06-17T15:50:51.439Z,8.85
2023-06-17T15:55:57.885Z,8.13
2023-06-17T16:01:04.019Z,6.57
2023-06-17T16:06:11.461Z,9.98
2023-06-17T16:11:17.141Z,8.63
2023-06-17T16:16:23.242Z,8.45
2023-06-17T16:21:29.263Z,15.27
2023-06-17T16:26:34.851Z,12.20
2023-06-17T16:31:40.934Z,8.73
2023-06-17T16:36:46.643Z,16.45
2023-06-17T16:41:52.974Z,11.27
2023-06-17T16:47:17.230Z,9.80
2023-06-17T16:52:26.226Z,9.90
2023-06-17T16:57:40.701Z,12.40
2023-06-17T17:02:53.305Z,13.57
2023-06-17T17:07:59.343Z,17.90
2023-06-17T17:13:05.106Z,15.82
2023-06-17T17:18:11.162Z,13.68
2023-06-17T17:23:17.969Z,18.52
2023-06-17T17:28:23.786Z,11.10
2023-06-17T17:33:29.684Z,11.82
2023-06-17T17:38:35.560Z,11.30
2023-06-17T17:43:42.221Z,13.65
2023-06-17T17:48:47.902Z,10.43
2023-06-17T17:53:53.681Z,16.08
2023-06-17T17:58:59.718Z,15.45
2023-06-17T18:04:05.991Z,14.50
2023-06-17T18:09:12.015Z,12.43
2023-06-17T18:14:18.775Z,6.78
2023-06-17T18:19:24.942Z,15.27
2023-06-17T18:24:30.989Z,14.50
2023-06-17T18:29:37.959Z,12.20
2023-06-17T18:34:44.824Z,10.27
2023-06-17T18:39:50.942Z,10.75
2023-06-17T18:44:56.653Z,15.65
2023-06-17T18:50:02.733Z,9.68
2023-06-17T18:55:09.152Z,11.02
2023-06-17T19:00:15.045Z,10.10
2023-06-17T19:05:20.684Z,11.63
2023-06-17T19:10:27.800Z,13.30
2023-06-17T19:15:35.583Z,12.68
2023-06-17T19:20:42.768Z,11.05
2023-06-17T19:25:48.455Z,10.25
2023-06-17T19:30:53.817Z,8.77
2023-06-17T19:41:06.405Z,11.38
2023-06-17T19:46:12.265Z,10.43
2023-06-17T19:51:17.657Z,8.55
2023-06-17T20:01:30.397Z,9.40
2023-06-17T20:06:36.202Z,9.68
2023-06-17T20:11:42.044Z,9.93
2023-06-17T20:16:48.097Z,8.20
2023-06-17T20:21:54.001Z,13.27
2023-06-17T20:26:59.921Z,10.57
2023-06-17T20:32:05.513Z,8.35
2023-06-17T20:37:10.965Z,10.82
2023-06-17T20:42:16.576Z,9.85
2023-06-17T20:47:22.790Z,10.30
2023-06-17T20:52:28.927Z,8.85
2023-06-17T20:57:34.554Z,8.90
2023-06-17T21:02:40.031Z,8.10
2023-06-17T21:07:46.474Z,7.15
2023-06-17T21:12:52.808Z,6.85
2023-06-17T21:17:58.764Z,6.88
2023-06-17T21:23:04.650Z,6.28
2023-06-17T21:28:10.238Z,5.68
2023-06-17T21:33:15.814Z,7.63
2023-06-17T21:38:21.721Z,6.80
2023-06-17T21:43:27.477Z,9.35
2023-06-17T21:48:37.309Z,9.13
2023-06-17T21:53:42.906Z,8.25
2023-06-17T21:58:48.750Z,8.10
2023-06-17T22:03:54.562Z,6.40
2023-06-17T22:09:00.275Z,9.82
2023-06-17T22:14:05.839Z,11.77
2023-06-17T22:19:11.639Z,9.50
2023-06-17T22:24:17.502Z,9.68
2023-06-17T22:29:23.296Z,12.70
2023-06-17T22:34:29.155Z,8.93
2023-06-17T22:39:35.304Z,9.85
2023-06-17T22:44:40.937Z,10.02
2023-06-17T22:49:46.528Z,8.55
2023-06-17T22:54:52.692Z,7.80
2023-06-17T22:59:58.390Z,8.65
2023-06-17T23:05:04.263Z,7.63
2023-06-17T23:10:09.897Z,8.25
2023-06-17T23:15:15.793Z,8.13
2023-06-17T23:20:21.823Z,6.10
2023-06-17T23:25:28.774Z,6.25
2023-06-17T23:30:34.485Z,6.65
2023-06-17T23:35:40.576Z,10.13
2023-06-17T23:40:46.438Z,10.43
2023-06-17T23:45:57.446Z,7.38
2023-06-17T23:51:03.293Z,9.73
2023-06-17T23:56:09.343Z,11.27
